Meath Environmental Platform

Observations for Trim Patrick St

Time AQI Temp °C Hum % Pres Pa CO μg/m³ H₂S μg/m³ NO μg/m³ NO₂ μg/m³ O₃ μg/m³ SO₂ μg/m³ PM1 μg/m³ PM2.5 μg/m³ PM10 μg/m³
Saturday 8 August 2026
16:52 3 35.4 28 69,525 0 0 0.25 11.97 75.58 19.99 2 7.78 8.55
16:51 3 35.4 28 69,553 0 0 0.25 9.88 52.33 19.82 2.86 8.58 9.44
16:50 3 35.3 29 69,553 0 0 0.27 11.39 58.24 18.89 2 8.57 9.43
16:49 3 35.1 30 69,543 0 0 0.3 12.95 81 19.13 2 7.71 8.48
16:48 3 34.9 29 69,527 0 0 0.32 30.26 77.21 18.51 2 7.71 8.48
16:47 3 34.7 30 69,509 0 0 0.34 11.94 72.75 17.51 2 7.67 8.44
16:46 3 34.6 30 69,491 0 0 0.36 12.95 91.35 19.7 2 7.67 8.44
16:45 3 34.5 29 69,473 0 0 0.38 8.23 45.24 18.83 2 7.71 8.48
16:44 3 34.4 30 69,477 0 0 0.38 13.13 86.04 19.41 2 8.49 9.34
16:43 2 34.4 30 69,481 0 0 0.38 21.66 67.53 17.35 2.86 8.51 9.36
16:42 3 34.4 30 69,462 0 0 0.38 10.77 69.54 20.05 2 7.67 8.44
16:41 3 34.4 30 69,462 0 0 0.38 21.33 65.75 18.14 2 7.67 8.44
16:40 3 34.3 30 69,458 0 0 0.39 13.32 69.58 17.72 2 8.49 9.34
16:39 2 34.2 32 69,428 0 0 0.39 12.8 80.38 18.11 2 7.57 8.33
16:38 2 34.1 31 69,418 0 0 0.4 12.07 71.36 17.84 2.86 8.41 9.25
16:37 2 33.9 31 69,404 0 0 0.44 14.34 72.25 17.19 2 7.62 8.38
16:36 2 33.7 32 69,389 0 0 0.45 12.29 84.51 17.46 2 7.57 8.33
16:35 2 33.5 32 69,404 0 0 0.47 12.23 64.9 17.13 2.86 9.12 10.03
16:34 2 33.2 32 69,397 0 0 0.51 12.98 72.23 17.68 2.86 9.15 10.07
16:33 2 33.1 32 69,383 0 0.57 0.55 12.92 96.94 18.52 2 7.55 8.3